sensor_id;sensor_type;location;lat;lon;timestamp;pressure;altitude;pressure_sealevel;temperature;humidity
38227;BME280;24026;49.446;8.576;2023-04-09T00:02:09;101304.53;;;15.26;42.83
38227;BME280;24026;49.446;8.576;2023-04-09T00:04:29;101291.38;;;15.24;42.83
38227;BME280;24026;49.446;8.576;2023-04-09T00:06:50;101297.84;;;15.28;42.64
38227;BME280;24026;49.446;8.576;2023-04-09T00:09:10;101292.50;;;15.28;42.60
38227;BME280;24026;49.446;8.576;2023-04-09T00:11:31;101291.44;;;15.29;42.61
38227;BME280;24026;49.446;8.576;2023-04-09T00:13:51;101292.50;;;15.28;42.62
38227;BME280;24026;49.446;8.576;2023-04-09T00:16:12;101293.56;;;15.27;42.61
38227;BME280;24026;49.446;8.576;2023-04-09T00:18:32;101293.25;;;15.24;42.56
38227;BME280;24026;49.446;8.576;2023-04-09T00:20:53;101288.16;;;15.22;42.74
38227;BME280;24026;49.446;8.576;2023-04-09T00:23:13;101291.63;;;15.23;42.71
38227;BME280;24026;49.446;8.576;2023-04-09T00:25:34;101287.56;;;15.20;42.76
38227;BME280;24026;49.446;8.576;2023-04-09T00:27:54;101290.59;;;15.24;42.64
38227;BME280;24026;49.446;8.576;2023-04-09T00:30:15;101286.03;;;15.24;42.74
38227;BME280;24026;49.446;8.576;2023-04-09T00:32:36;101292.75;;;15.27;42.73
38227;BME280;24026;49.446;8.576;2023-04-09T00:34:56;101287.66;;;15.25;42.59
38227;BME280;24026;49.446;8.576;2023-04-09T00:37:16;101283.06;;;15.21;42.60
38227;BME280;24026;49.446;8.576;2023-04-09T00:39:37;101276.06;;;15.19;42.63
38227;BME280;24026;49.446;8.576;2023-04-09T00:42:00;101280.38;;;15.21;42.64
38227;BME280;24026;49.446;8.576;2023-04-09T00:44:22;101281.19;;;15.21;42.56
38227;BME280;24026;49.446;8.576;2023-04-09T00:46:42;101277.44;;;15.22;42.61
38227;BME280;24026;49.446;8.576;2023-04-09T00:49:02;101276.63;;;15.22;42.67
38227;BME280;24026;49.446;8.576;2023-04-09T00:51:23;101278.50;;;15.21;42.57
38227;BME280;24026;49.446;8.576;2023-04-09T00:53:43;101276.06;;;15.19;42.54
38227;BME280;24026;49.446;8.576;2023-04-09T00:56:05;101279.00;;;15.18;42.59
38227;BME280;24026;49.446;8.576;2023-04-09T00:58:26;101286.47;;;15.16;42.62
38227;BME280;24026;49.446;8.576;2023-04-09T01:00:46;101276.25;;;15.13;42.69
38227;BME280;24026;49.446;8.576;2023-04-09T01:03:07;101278.94;;;15.13;42.53
38227;BME280;24026;49.446;8.576;2023-04-09T01:05:36;101282.75;;;15.17;42.60
38227;BME280;24026;49.446;8.576;2023-04-09T01:08:02;101285.91;;;15.14;42.62
38227;BME280;24026;49.446;8.576;2023-04-09T01:10:37;101272.22;;;15.10;42.65
38227;BME280;24026;49.446;8.576;2023-04-09T01:13:18;101279.19;;;15.11;42.58
38227;BME280;24026;49.446;8.576;2023-04-09T01:15:59;101278.38;;;15.11;42.63
38227;BME280;24026;49.446;8.576;2023-04-09T01:18:30;101277.59;;;15.10;42.64
38227;BME280;24026;49.446;8.576;2023-04-09T01:21:02;101271.97;;;15.12;42.65
38227;BME280;24026;49.446;8.576;2023-04-09T01:26:17;101271.91;;;15.07;42.77
38227;BME280;24026;49.446;8.576;2023-04-09T01:28:42;101274.56;;;15.07;42.74
38227;BME280;24026;49.446;8.576;2023-04-09T01:31:16;101277.34;;;15.12;42.64
38227;BME280;24026;49.446;8.576;2023-04-09T01:33:38;101272.47;;;15.09;42.66
38227;BME280;24026;49.446;8.576;2023-04-09T01:35:59;101275.16;;;15.09;42.74
38227;BME280;24026;49.446;8.576;2023-04-09T01:38:21;101274.91;;;15.10;42.56
38227;BME280;24026;49.446;8.576;2023-04-09T01:40:42;101278.56;;;15.04;42.69
38227;BME280;24026;49.446;8.576;2023-04-09T01:43:03;101279.44;;;15.10;42.54
38227;BME280;24026;49.446;8.576;2023-04-09T01:45:25;101277.25;;;15.07;42.54
38227;BME280;24026;49.446;8.576;2023-04-09T01:47:46;101274.56;;;15.07;42.69
38227;BME280;24026;49.446;8.576;2023-04-09T01:50:07;101273.22;;;15.04;42.48
38227;BME280;24026;49.446;8.576;2023-04-09T01:52:28;101278.31;;;15.06;42.66
38227;BME280;24026;49.446;8.576;2023-04-09T01:54:48;101274.03;;;15.05;42.67
38227;BME280;24026;49.446;8.576;2023-04-09T01:57:09;101285.22;;;15.01;42.66
38227;BME280;24026;49.446;8.576;2023-04-09T01:59:29;101280.44;;;15.04;42.64
38227;BME280;24026;49.446;8.576;2023-04-09T02:01:54;101280.13;;;15.00;42.77
38227;BME280;24026;49.446;8.576;2023-04-09T02:04:36;101277.72;;;14.98;42.75
38227;BME280;24026;49.446;8.576;2023-04-09T02:09:38;101283.38;;;15.02;42.86
38227;BME280;24026;49.446;8.576;2023-04-09T02:12:02;101278.03;;;15.02;42.63
38227;BME280;24026;49.446;8.576;2023-04-09T02:14:25;101291.16;;;15.04;42.55
38227;BME280;24026;49.446;8.576;2023-04-09T02:16:46;101280.63;;;14.97;42.83
38227;BME280;24026;49.446;8.576;2023-04-09T02:19:07;101284.41;;;15.01;42.66
38227;BME280;24026;49.446;8.576;2023-04-09T02:21:28;101285.16;;;14.96;42.76
38227;BME280;24026;49.446;8.576;2023-04-09T02:23:49;101285.16;;;14.96;42.82
38227;BME280;24026;49.446;8.576;2023-04-09T02:26:09;101282.50;;;14.96;42.84
38227;BME280;24026;49.446;8.576;2023-04-09T02:28:30;101288.66;;;14.97;42.71
38227;BME280;24026;49.446;8.576;2023-04-09T02:30:50;101288.91;;;14.95;42.84
38227;BME280;24026;49.446;8.576;2023-04-09T02:33:11;101280.88;;;14.95;42.83
38227;BME280;24026;49.446;8.576;2023-04-09T02:35:31;101288.09;;;14.95;42.87
38227;BME280;24026;49.446;8.576;2023-04-09T02:37:52;101286.47;;;14.94;42.78
38227;BME280;24026;49.446;8.576;2023-04-09T02:40:12;101280.31;;;14.93;42.80
38227;BME280;24026;49.446;8.576;2023-04-09T02:42:33;101279.50;;;14.93;42.70
38227;BME280;24026;49.446;8.576;2023-04-09T02:44:53;101275.78;;;14.94;42.80
38227;BME280;24026;49.446;8.576;2023-04-09T02:47:13;101268.00;;;14.92;42.79
38227;BME280;24026;49.446;8.576;2023-04-09T02:49:34;101277.06;;;14.91;42.70
38227;BME280;24026;49.446;8.576;2023-04-09T02:51:54;101274.41;;;14.91;42.88
38227;BME280;24026;49.446;8.576;2023-04-09T02:54:15;101275.13;;;14.87;43.06
38227;BME280;24026;49.446;8.576;2023-04-09T02:56:35;101281.88;;;14.89;43.14
38227;BME280;24026;49.446;8.576;2023-04-09T02:58:56;101275.72;;;14.89;42.85
38227;BME280;24026;49.446;8.576;2023-04-09T03:01:16;101272.97;;;14.84;43.01
38227;BME280;24026;49.446;8.576;2023-04-09T03:03:36;101280.50;;;14.87;42.88
38227;BME280;24026;49.446;8.576;2023-04-09T03:05:59;101273.28;;;14.87;42.99
38227;BME280;24026;49.446;8.576;2023-04-09T03:08:19;101267.44;;;14.90;42.90
38227;BME280;24026;49.446;8.576;2023-04-09T03:10:39;101270.38;;;14.89;42.97
38227;BME280;24026;49.446;8.576;2023-04-09T03:13:00;101272.72;;;14.85;42.92
38227;BME280;24026;49.446;8.576;2023-04-09T03:15:20;101271.09;;;14.84;42.92
38227;BME280;24026;49.446;8.576;2023-04-09T03:17:41;101269.47;;;14.83;42.84
38227;BME280;24026;49.446;8.576;2023-04-09T03:20:01;101276.16;;;14.80;42.93
38227;BME280;24026;49.446;8.576;2023-04-09T03:22:21;101278.00;;;14.80;42.99
38227;BME280;24026;49.446;8.576;2023-04-09T03:24:42;101270.56;;;14.82;43.05
38227;BME280;24026;49.446;8.576;2023-04-09T03:27:02;101271.34;;;14.82;42.89
38227;BME280;24026;49.446;8.576;2023-04-09T03:29:23;101272.41;;;14.81;42.94
38227;BME280;24026;49.446;8.576;2023-04-09T03:31:43;101266.25;;;14.81;43.10
38227;BME280;24026;49.446;8.576;2023-04-09T03:34:03;101263.25;;;14.77;43.01
38227;BME280;24026;49.446;8.576;2023-04-09T03:36:24;101269.72;;;14.81;42.96
38227;BME280;24026;49.446;8.576;2023-04-09T03:38:47;101261.13;;;14.79;43.00
38227;BME280;24026;49.446;8.576;2023-04-09T03:41:07;101266.50;;;14.79;42.95
38227;BME280;24026;49.446;8.576;2023-04-09T03:43:27;101259.78;;;14.77;42.93
38227;BME280;24026;49.446;8.576;2023-04-09T03:45:48;101262.47;;;14.77;43.15
38227;BME280;24026;49.446;8.576;2023-04-09T03:48:08;101265.13;;;14.77;43.04
38227;BME280;24026;49.446;8.576;2023-04-09T03:50:29;101256.28;;;14.76;43.17
38227;BME280;24026;49.446;8.576;2023-04-09T03:52:49;101258.41;;;14.74;42.97
38227;BME280;24026;49.446;8.576;2023-04-09T03:55:09;101264.56;;;14.75;43.14
38227;BME280;24026;49.446;8.576;2023-04-09T03:57:30;101266.66;;;14.73;43.17
38227;BME280;24026;49.446;8.576;2023-04-09T03:59:50;101269.34;;;14.73;43.23
38227;BME280;24026;49.446;8.576;2023-04-09T04:02:10;101266.44;;;14.74;42.99
38227;BME280;24026;49.446;8.576;2023-04-09T04:04:31;101263.19;;;14.72;43.18
38227;BME280;24026;49.446;8.576;2023-04-09T04:06:51;101266.66;;;14.73;43.04
38227;BME280;24026;49.446;8.576;2023-04-09T04:09:12;101261.25;;;14.68;43.21
38227;BME280;24026;49.446;8.576;2023-04-09T04:11:32;101261.00;;;14.69;43.18
38227;BME280;24026;49.446;8.576;2023-04-09T04:13:53;101259.13;;;14.70;43.14
38227;BME280;24026;49.446;8.576;2023-04-09T04:16:15;101265.81;;;14.67;43.06
38227;BME280;24026;49.446;8.576;2023-04-09T04:18:35;101255.09;;;14.67;43.21
38227;BME280;24026;49.446;8.576;2023-04-09T04:20:56;101262.31;;;14.67;43.21
38227;BME280;24026;49.446;8.576;2023-04-09T04:23:16;101259.63;;;14.67;43.15
38227;BME280;24026;49.446;8.576;2023-04-09T04:25:40;101263.63;;;14.64;43.17
38227;BME280;24026;49.446;8.576;2023-04-09T04:28:00;101266.06;;;14.66;43.25
38227;BME280;24026;49.446;8.576;2023-04-09T04:30:21;101264.97;;;14.67;43.06
38227;BME280;24026;49.446;8.576;2023-04-09T04:32:41;101270.31;;;14.67;43.18
38227;BME280;24026;49.446;8.576;2023-04-09T04:35:02;101272.44;;;14.64;43.22
38227;BME280;24026;49.446;8.576;2023-04-09T04:37:22;101270.84;;;14.63;43.27
38227;BME280;24026;49.446;8.576;2023-04-09T04:39:43;101269.78;;;14.64;43.44
38227;BME280;24026;49.446;8.576;2023-04-09T04:42:03;101271.88;;;14.62;43.27
38227;BME280;24026;49.446;8.576;2023-04-09T04:44:23;101275.94;;;14.65;43.31
38227;BME280;24026;49.446;8.576;2023-04-09T04:46:44;101273.53;;;14.63;43.26
38227;BME280;24026;49.446;8.576;2023-04-09T04:49:04;101277.50;;;14.61;43.27
38227;BME280;24026;49.446;8.576;2023-04-09T04:51:25;101274.25;;;14.59;43.44
38227;BME280;24026;49.446;8.576;2023-04-09T04:53:46;101272.38;;;14.59;43.28
38227;BME280;24026;49.446;8.576;2023-04-09T04:56:12;101273.19;;;14.60;43.36
38227;BME280;24026;49.446;8.576;2023-04-09T04:58:33;101283.28;;;14.58;43.18
38227;BME280;24026;49.446;8.576;2023-04-09T05:00:53;101279.81;;;14.57;43.56
38227;BME280;24026;49.446;8.576;2023-04-09T05:03:14;101278.78;;;14.58;43.38
38227;BME280;24026;49.446;8.576;2023-04-09T05:05:34;101282.50;;;14.57;43.44
38227;BME280;24026;49.446;8.576;2023-04-09T05:07:55;101282.75;;;14.56;43.48
38227;BME280;24026;49.446;8.576;2023-04-09T05:10:15;101281.94;;;14.55;43.48
38227;BME280;24026;49.446;8.576;2023-04-09T05:12:35;101276.34;;;14.57;43.40
38227;BME280;24026;49.446;8.576;2023-04-09T05:14:56;101278.44;;;14.55;43.46
38227;BME280;24026;49.446;8.576;2023-04-09T05:17:16;101283.53;;;14.56;43.42
38227;BME280;24026;49.446;8.576;2023-04-09T05:19:37;101286.22;;;14.56;43.41
38227;BME280;24026;49.446;8.576;2023-04-09T05:21:57;101288.34;;;14.54;43.46
38227;BME280;24026;49.446;8.576;2023-04-09T05:24:17;101284.84;;;14.54;43.46
38227;BME280;24026;49.446;8.576;2023-04-09T05:26:38;101290.44;;;14.52;43.55
38227;BME280;24026;49.446;8.576;2023-04-09T05:28:58;101283.78;;;14.55;43.45
38227;BME280;24026;49.446;8.576;2023-04-09T05:31:19;101282.19;;;14.54;43.48
38227;BME280;24026;49.446;8.576;2023-04-09T05:33:39;101287.53;;;14.54;43.47
38227;BME280;24026;49.446;8.576;2023-04-09T05:36:00;101287.53;;;14.54;43.44
38227;BME280;24026;49.446;8.576;2023-04-09T05:38:20;101285.66;;;14.54;43.31
38227;BME280;24026;49.446;8.576;2023-04-09T05:40:40;101289.97;;;14.55;43.42
38227;BME280;24026;49.446;8.576;2023-04-09T05:43:03;101288.34;;;14.54;43.37
38227;BME280;24026;49.446;8.576;2023-04-09T05:45:23;101290.44;;;14.52;43.63
38227;BME280;24026;49.446;8.576;2023-04-09T05:47:44;101295.00;;;14.52;43.56
38227;BME280;24026;49.446;8.576;2023-04-09T05:50:05;101291.50;;;14.51;43.26
38227;BME280;24026;49.446;8.576;2023-04-09T05:52:25;101294.16;;;14.51;43.58
38227;BME280;24026;49.446;8.576;2023-04-09T05:54:46;101295.00;;;14.52;43.57
38227;BME280;24026;49.446;8.576;2023-04-09T05:57:06;101297.91;;;14.50;43.50
38227;BME280;24026;49.446;8.576;2023-04-09T05:59:26;101293.38;;;14.51;43.42
38227;BME280;24026;49.446;8.576;2023-04-09T06:01:47;101295.00;;;14.52;43.65
38227;BME280;24026;49.446;8.576;2023-04-09T06:04:07;101299.03;;;14.54;43.52
38227;BME280;24026;49.446;8.576;2023-04-09T06:06:27;101297.91;;;14.50;43.48
38227;BME280;24026;49.446;8.576;2023-04-09T06:08:48;101298.72;;;14.51;43.43
38227;BME280;24026;49.446;8.576;2023-04-09T06:11:08;101298.72;;;14.51;43.67
38227;BME280;24026;49.446;8.576;2023-04-09T06:13:29;101307.28;;;14.53;43.48
38227;BME280;24026;49.446;8.576;2023-04-09T06:15:50;101301.16;;;14.52;43.57
38227;BME280;24026;49.446;8.576;2023-04-09T06:18:10;101311.03;;;14.52;43.42
38227;BME280;24026;49.446;8.576;2023-04-09T06:20:30;101314.53;;;14.52;43.44
38227;BME280;24026;49.446;8.576;2023-04-09T06:22:51;101306.25;;;14.54;43.61
38227;BME280;24026;49.446;8.576;2023-04-09T06:25:11;101303.81;;;14.52;43.55
38227;BME280;24026;49.446;8.576;2023-04-09T06:27:32;101315.81;;;14.50;43.61
38227;BME280;24026;49.446;8.576;2023-04-09T06:29:52;101307.28;;;14.53;43.41
38227;BME280;24026;49.446;8.576;2023-04-09T06:32:13;101318.00;;;14.53;43.55
38227;BME280;24026;49.446;8.576;2023-04-09T06:34:33;101311.84;;;14.52;43.51
38227;BME280;24026;49.446;8.576;2023-04-09T06:36:53;101323.09;;;14.54;43.43
38227;BME280;24026;49.446;8.576;2023-04-09T06:39:15;101313.44;;;14.53;43.40
38227;BME280;24026;49.446;8.576;2023-04-09T06:41:35;101319.38;;;14.55;43.43
38227;BME280;24026;49.446;8.576;2023-04-09T06:43:55;101314.59;;;14.57;43.30
38227;BME280;24026;49.446;8.576;2023-04-09T06:46:16;101322.63;;;14.57;43.46
38227;BME280;24026;49.446;8.576;2023-04-09T06:48:39;101321.22;;;14.55;43.43
38227;BME280;24026;49.446;8.576;2023-04-09T06:51:01;101325.53;;;14.56;43.49
38227;BME280;24026;49.446;8.576;2023-04-09T06:53:21;101330.09;;;14.55;43.47
38227;BME280;24026;49.446;8.576;2023-04-09T06:55:42;101323.66;;;14.56;43.47
38227;BME280;24026;49.446;8.576;2023-04-09T06:58:02;101324.25;;;14.58;43.42
38227;BME280;24026;49.446;8.576;2023-04-09T07:00:23;101321.56;;;14.58;43.44
38227;BME280;24026;49.446;8.576;2023-04-09T07:02:43;101326.44;;;14.61;43.35
38227;BME280;24026;49.446;8.576;2023-04-09T07:05:04;101321.09;;;14.61;43.26
38227;BME280;24026;49.446;8.576;2023-04-09T07:07:25;101324.13;;;14.65;43.15
38227;BME280;24026;49.446;8.576;2023-04-09T07:09:45;101318.16;;;14.63;43.30
38227;BME280;24026;49.446;8.576;2023-04-09T07:12:05;101308.31;;;14.63;43.25
38227;BME280;24026;49.446;8.576;2023-04-09T07:14:26;101310.97;;;14.63;43.35
38227;BME280;24026;49.446;8.576;2023-04-09T07:16:46;101313.66;;;14.63;43.47
38227;BME280;24026;49.446;8.576;2023-04-09T07:19:07;101319.88;;;14.69;43.20
38227;BME280;24026;49.446;8.576;2023-04-09T07:21:27;101314.28;;;14.71;43.08
38227;BME280;24026;49.446;8.576;2023-04-09T07:23:48;101323.34;;;14.70;43.05
38227;BME280;24026;49.446;8.576;2023-04-09T07:26:08;101323.34;;;14.70;43.25
38227;BME280;24026;49.446;8.576;2023-04-09T07:28:29;101328.22;;;14.73;43.01
38227;BME280;24026;49.446;8.576;2023-04-09T07:30:50;101329.59;;;14.75;43.21
38227;BME280;24026;49.446;8.576;2023-04-09T07:33:10;101324.50;;;14.74;43.21
38227;BME280;24026;49.446;8.576;2023-04-09T07:35:31;101323.66;;;14.73;43.19
38227;BME280;24026;49.446;8.576;2023-04-09T07:37:53;101317.03;;;14.76;43.13
38227;BME280;24026;49.446;8.576;2023-04-09T07:40:14;101324.81;;;14.77;43.12
38227;BME280;24026;49.446;8.576;2023-04-09T07:42:36;101326.69;;;14.77;43.05
38227;BME280;24026;49.446;8.576;2023-04-09T07:44:57;101326.16;;;14.80;43.12
38227;BME280;24026;49.446;8.576;2023-04-09T07:47:18;101328.84;;;14.80;43.03
38227;BME280;24026;49.446;8.576;2023-04-09T07:49:38;101328.59;;;14.81;43.02
38227;BME280;24026;49.446;8.576;2023-04-09T07:51:59;101330.78;;;14.85;43.02
38227;BME280;24026;49.446;8.576;2023-04-09T07:54:19;101330.22;;;14.82;42.97
38227;BME280;24026;49.446;8.576;2023-04-09T07:56:43;101330.78;;;14.85;42.93
38227;BME280;24026;49.446;8.576;2023-04-09T07:59:03;101334.59;;;14.89;42.78
38227;BME280;24026;49.446;8.576;2023-04-09T08:01:23;101339.47;;;14.92;42.87
38227;BME280;24026;49.446;8.576;2023-04-09T08:03:45;101334.09;;;14.92;42.90
38227;BME280;24026;49.446;8.576;2023-04-09T08:06:05;101337.84;;;14.91;43.02
38227;BME280;24026;49.446;8.576;2023-04-09T08:08:26;101340.50;;;14.91;42.64
38227;BME280;24026;49.446;8.576;2023-04-09T08:10:46;101337.34;;;14.94;42.76
38227;BME280;24026;49.446;8.576;2023-04-09T08:13:07;101339.78;;;14.95;42.72
38227;BME280;24026;49.446;8.576;2023-04-09T08:15:27;101336.25;;;14.95;42.85
38227;BME280;24026;49.446;8.576;2023-04-09T08:17:48;101339.53;;;14.97;42.73
38227;BME280;24026;49.446;8.576;2023-04-09T08:20:08;101346.78;;;15.01;42.65
38227;BME280;24026;49.446;8.576;2023-04-09T08:22:29;101342.28;;;15.02;42.67
38227;BME280;24026;49.446;8.576;2023-04-09T08:24:51;101341.44;;;15.01;42.73
38227;BME280;24026;49.446;8.576;2023-04-09T08:27:12;101350.06;;;15.04;42.61
38227;BME280;24026;49.446;8.576;2023-04-09T08:29:32;101345.50;;;15.04;42.48
38227;BME280;24026;49.446;8.576;2023-04-09T08:31:53;101348.50;;;15.08;42.49
38227;BME280;24026;49.446;8.576;2023-04-09T08:34:14;101347.44;;;15.09;42.39
38227;BME280;24026;49.446;8.576;2023-04-09T08:36:36;101350.44;;;15.12;42.18
38227;BME280;24026;49.446;8.576;2023-04-09T08:38:57;101351.53;;;15.16;42.44
38227;BME280;24026;49.446;8.576;2023-04-09T08:41:23;101355.28;;;15.15;42.59
38227;BME280;24026;49.446;8.576;2023-04-09T08:43:46;101356.09;;;15.16;42.48
38227;BME280;24026;49.446;8.576;2023-04-09T08:46:09;101356.66;;;15.18;42.56
38227;BME280;24026;49.446;8.576;2023-04-09T08:48:29;101361.75;;;15.19;42.37
38227;BME280;24026;49.446;8.576;2023-04-09T08:50:52;101351.34;;;15.23;42.40
38227;BME280;24026;49.446;8.576;2023-04-09T08:53:14;101348.44;;;15.25;42.25
38227;BME280;24026;49.446;8.576;2023-04-09T08:55:36;101354.91;;;15.29;42.35
38227;BME280;24026;49.446;8.576;2023-04-09T08:57:56;101355.97;;;15.28;42.33
38227;BME280;24026;49.446;8.576;2023-04-09T09:00:17;101355.22;;;15.32;42.20
38227;BME280;24026;49.446;8.576;2023-04-09T09:02:38;101355.53;;;15.36;42.18
38227;BME280;24026;49.446;8.576;2023-04-09T09:04:59;101356.63;;;15.40;42.02
38227;BME280;24026;49.446;8.576;2023-04-09T09:07:20;101355.34;;;15.43;42.13
38227;BME280;24026;49.446;8.576;2023-04-09T09:09:54;101363.69;;;15.46;41.88
38227;BME280;24026;49.446;8.576;2023-04-09T09:14:55;101356.53;;;15.52;41.88
38227;BME280;24026;49.446;8.576;2023-04-09T09:17:15;101347.72;;;15.56;41.81
38227;BME280;24026;49.446;8.576;2023-04-09T09:19:36;101348.84;;;15.61;41.70
38227;BME280;24026;49.446;8.576;2023-04-09T09:22:02;101347.28;;;15.65;41.62
38227;BME280;24026;49.446;8.576;2023-04-09T09:24:23;101350.25;;;15.68;41.51
38227;BME280;24026;49.446;8.576;2023-04-09T09:26:43;101351.38;;;15.72;41.63
38227;BME280;24026;49.446;8.576;2023-04-09T09:29:03;101344.47;;;15.77;41.63
38227;BME280;24026;49.446;8.576;2023-04-09T09:31:24;101347.19;;;15.82;41.31
38227;BME280;24026;49.446;8.576;2023-04-09T09:33:46;101349.63;;;15.83;41.32
38227;BME280;24026;49.446;8.576;2023-04-09T09:36:07;101349.13;;;15.86;41.22
38227;BME280;24026;49.446;8.576;2023-04-09T09:38:29;101348.38;;;15.91;40.98
38227;BME280;24026;49.446;8.576;2023-04-09T09:40:50;101344.34;;;15.93;41.28
38227;BME280;24026;49.446;8.576;2023-04-09T09:43:14;101344.94;;;15.96;40.97
38227;BME280;24026;49.446;8.576;2023-04-09T09:45:36;101347.38;;;15.97;41.33
38227;BME280;24026;49.446;8.576;2023-04-09T09:47:57;101340.91;;;15.98;40.83
38227;BME280;24026;49.446;8.576;2023-04-09T09:50:19;101340.66;;;16.00;40.94
38227;BME280;24026;49.446;8.576;2023-04-09T09:52:42;101345.03;;;16.06;40.77
38227;BME280;24026;49.446;8.576;2023-04-09T09:55:05;101343.44;;;16.10;40.85
38227;BME280;24026;49.446;8.576;2023-04-09T09:57:28;101333.53;;;16.10;40.64
38227;BME280;24026;49.446;8.576;2023-04-09T09:59:53;101333.25;;;16.12;40.55
38227;BME280;24026;49.446;8.576;2023-04-09T10:02:18;101334.13;;;16.18;40.48
38227;BME280;24026;49.446;8.576;2023-04-09T10:04:39;101335.19;;;16.17;40.51
38227;BME280;24026;49.446;8.576;2023-04-09T10:07:05;101331.19;;;16.19;40.50
38227;BME280;24026;49.446;8.576;2023-04-09T10:09:26;101326.63;;;16.20;40.34
38227;BME280;24026;49.446;8.576;2023-04-09T10:11:47;101330.94;;;16.21;40.50
38227;BME280;24026;49.446;8.576;2023-04-09T10:14:08;101338.72;;;16.22;40.23
38227;BME280;24026;49.446;8.576;2023-04-09T10:16:29;101330.44;;;16.24;40.21
38227;BME280;24026;49.446;8.576;2023-04-09T10:18:50;101328.53;;;16.24;40.17
38227;BME280;24026;49.446;8.576;2023-04-09T10:21:48;101331.22;;;16.24;40.19
38227;BME280;24026;49.446;8.576;2023-04-09T10:24:07;101326.13;;;16.23;40.21
38227;BME280;24026;49.446;8.576;2023-04-09T10:26:28;101324.78;;;16.25;40.27
38227;BME280;24026;49.446;8.576;2023-04-09T10:29:11;101314.84;;;16.21;40.00
38227;BME280;24026;49.446;8.576;2023-04-09T10:34:26;101313.28;;;16.30;40.05
38227;BME280;24026;49.446;8.576;2023-04-09T10:37:07;101316.81;;;16.30;39.96
38227;BME280;24026;49.446;8.576;2023-04-09T10:39:32;101312.22;;;16.31;39.97
38227;BME280;24026;49.446;8.576;2023-04-09T10:41:53;101316.81;;;16.30;39.88
38227;BME280;24026;49.446;8.576;2023-04-09T10:44:25;101306.88;;;16.31;39.92
38227;BME280;24026;49.446;8.576;2023-04-09T10:46:46;101307.94;;;16.30;39.96
38227;BME280;24026;49.446;8.576;2023-04-09T10:49:08;101302.84;;;16.34;39.78
38227;BME280;24026;49.446;8.576;2023-04-09T10:51:34;101302.31;;;16.32;39.96
38227;BME280;24026;49.446;8.576;2023-04-09T10:53:54;101298.06;;;16.36;40.00
38227;BME280;24026;49.446;8.576;2023-04-09T10:56:15;101295.13;;;16.37;39.77
38227;BME280;24026;49.446;8.576;2023-04-09T10:58:36;101298.84;;;16.36;40.03
38227;BME280;24026;49.446;8.576;2023-04-09T11:01:00;101297.81;;;16.37;39.81
38227;BME280;24026;49.446;8.576;2023-04-09T11:03:21;101296.22;;;16.41;39.81
38227;BME280;24026;49.446;8.576;2023-04-09T11:05:42;101295.41;;;16.41;39.75
38227;BME280;24026;49.446;8.576;2023-04-09T11:08:11;101297.50;;;16.39;39.80
38227;BME280;24026;49.446;8.576;2023-04-09T11:10:32;101293.53;;;16.41;39.81
38227;BME280;24026;49.446;8.576;2023-04-09T11:12:52;101296.75;;;16.43;39.83
38227;BME280;24026;49.446;8.576;2023-04-09T11:15:18;101288.69;;;16.43;39.67
38227;BME280;24026;49.446;8.576;2023-04-09T11:17:39;101291.09;;;16.40;39.79
38227;BME280;24026;49.446;8.576;2023-04-09T11:20:01;101292.72;;;16.41;39.65
38227;BME280;24026;49.446;8.576;2023-04-09T11:22:22;101291.63;;;16.42;39.68
38227;BME280;24026;49.446;8.576;2023-04-09T11:24:44;101291.63;;;16.42;39.70
38227;BME280;24026;49.446;8.576;2023-04-09T11:27:05;101290.59;;;16.43;39.57
38227;BME280;24026;49.446;8.576;2023-04-09T11:29:26;101288.69;;;16.43;39.75
38227;BME280;24026;49.446;8.576;2023-04-09T11:31:46;101281.19;;;16.45;39.69
38227;BME280;24026;49.446;8.576;2023-04-09T11:34:09;101292.47;;;16.42;39.49
38227;BME280;24026;49.446;8.576;2023-04-09T11:36:33;101284.97;;;16.44;39.73
38227;BME280;24026;49.446;8.576;2023-04-09T11:38:54;101279.34;;;16.46;39.44
38227;BME280;24026;49.446;8.576;2023-04-09T11:41:15;101283.63;;;16.47;39.60
38227;BME280;24026;49.446;8.576;2023-04-09T11:43:35;101279.06;;;16.47;39.44
38227;BME280;24026;49.446;8.576;2023-04-09T11:45:56;101285.78;;;16.50;39.43
38227;BME280;24026;49.446;8.576;2023-04-09T11:48:17;101281.75;;;16.47;39.42
38227;BME280;24026;49.446;8.576;2023-04-09T11:50:37;101283.66;;;16.52;39.38
38227;BME280;24026;49.446;8.576;2023-04-09T11:52:58;101287.41;;;16.51;39.27
38227;BME280;24026;49.446;8.576;2023-04-09T11:55:23;101288.22;;;16.52;39.04
38227;BME280;24026;49.446;8.576;2023-04-09T11:57:45;101275.09;;;16.55;39.22
38227;BME280;24026;49.446;8.576;2023-04-09T12:00:16;101285.50;;;16.46;39.26
38227;BME280;24026;49.446;8.576;2023-04-09T12:02:44;101286.06;;;16.54;38.88
38227;BME280;24026;49.446;8.576;2023-04-09T12:05:10;101283.94;;;16.51;39.18
38227;BME280;24026;49.446;8.576;2023-04-09T12:07:32;101283.66;;;16.52;39.07
38227;BME280;24026;49.446;8.576;2023-04-09T12:09:52;101286.06;;;16.54;39.30
38227;BME280;24026;49.446;8.576;2023-04-09T12:12:17;101283.97;;;16.56;38.94
38227;BME280;24026;49.446;8.576;2023-04-09T12:14:44;101278.84;;;16.54;38.92
38227;BME280;24026;49.446;8.576;2023-04-09T12:17:07;101287.97;;;16.58;38.98
38227;BME280;24026;49.446;8.576;2023-04-09T12:19:27;101282.06;;;16.56;38.86
38227;BME280;24026;49.446;8.576;2023-04-09T12:21:49;101285.56;;;16.57;38.98
38227;BME280;24026;49.446;8.576;2023-04-09T12:24:10;101292.81;;;16.56;38.83
38227;BME280;24026;49.446;8.576;2023-04-09T12:26:30;101283.13;;;16.55;38.85
38227;BME280;24026;49.446;8.576;2023-04-09T12:28:50;101280.19;;;16.57;38.90
38227;BME280;24026;49.446;8.576;2023-04-09T12:31:11;101276.19;;;16.59;38.81
38227;BME280;24026;49.446;8.576;2023-04-09T12:33:32;101267.84;;;16.56;38.74